createdAt,value
2019-05-14T00:01:03.244Z,64.80
2019-05-14T00:07:48.831Z,65.40
2019-05-14T00:14:39.579Z,65.80
2019-05-14T00:21:21.532Z,67.40
2019-05-14T00:28:18.501Z,66.70
2019-05-14T00:35:03.864Z,66.50
2019-05-14T00:41:51.073Z,67.00
2019-05-14T00:48:35.330Z,67.60
2019-05-14T00:55:22.261Z,68.60
2019-05-14T01:02:06.842Z,68.70
2019-05-14T01:08:51.998Z,69.70
2019-05-14T01:15:37.126Z,70.00
2019-05-14T01:22:21.968Z,70.80
2019-05-14T01:29:07.024Z,70.40
2019-05-14T01:35:51.872Z,69.60
2019-05-14T01:42:36.793Z,69.30
2019-05-14T01:49:22.148Z,69.80
2019-05-14T01:56:07.159Z,70.50
2019-05-14T02:02:52.502Z,69.40
2019-05-14T02:09:37.775Z,67.20
2019-05-14T02:16:22.667Z,69.60
2019-05-14T02:23:07.770Z,70.50
2019-05-14T02:29:52.624Z,70.80
2019-05-14T02:36:40.022Z,72.70
2019-05-14T02:43:24.274Z,73.50
2019-05-14T02:50:10.125Z,73.30
2019-05-14T02:56:55.182Z,75.50
2019-05-14T03:03:40.533Z,75.20
2019-05-14T03:10:30.147Z,76.60
2019-05-14T03:17:14.786Z,76.80
2019-05-14T03:31:52.526Z,74.20
2019-05-14T03:38:35.347Z,72.90
2019-05-14T03:45:20.269Z,73.30
2019-05-14T03:52:05.372Z,74.80
2019-05-14T03:58:50.324Z,74.90
2019-05-14T04:05:35.509Z,74.00
2019-05-14T04:12:23.090Z,73.10
2019-05-14T04:19:10.087Z,73.60
2019-05-14T04:25:55.855Z,72.70
2019-05-14T04:32:41.691Z,72.00
2019-05-14T04:39:30.431Z,70.70
2019-05-14T04:46:13.324Z,70.10
2019-05-14T04:52:59.947Z,68.60
2019-05-14T04:59:45.286Z,67.30
2019-05-14T05:06:30.147Z,65.90
2019-05-14T05:13:15.295Z,62.40
2019-05-14T05:20:00.480Z,36.40
2019-05-14T05:26:45.411Z,27.80
2019-05-14T05:33:30.331Z,25.60
2019-05-14T05:40:15.563Z,24.20
2019-05-14T05:47:00.434Z,23.20
2019-05-14T05:53:45.443Z,22.30
2019-05-14T06:00:39.952Z,20.70
2019-05-14T06:07:25.685Z,20.10
2019-05-14T06:14:10.539Z,18.90
2019-05-14T06:20:58.339Z,19.00
2019-05-14T06:27:42.609Z,18.40
2019-05-14T06:34:29.168Z,19.00
2019-05-14T06:41:14.327Z,19.20
2019-05-14T06:47:59.373Z,19.20
2019-05-14T06:54:44.618Z,18.90
2019-05-14T07:01:29.563Z,18.30
2019-05-14T07:08:14.495Z,18.70
2019-05-14T07:14:59.360Z,18.80
2019-05-14T07:21:44.322Z,18.00
2019-05-14T07:28:29.275Z,17.80
2019-05-14T07:35:14.355Z,18.40
2019-05-14T07:41:59.440Z,19.20
2019-05-14T07:48:44.346Z,19.10
2019-05-14T07:55:29.413Z,18.30
2019-05-14T08:02:14.349Z,18.40
2019-05-14T08:08:59.389Z,19.30
2019-05-14T08:15:44.307Z,19.70
2019-05-14T08:22:29.549Z,18.90
2019-05-14T08:29:14.722Z,19.20
2019-05-14T08:35:59.815Z,19.30
2019-05-14T08:42:45.286Z,18.60
2019-05-14T08:49:42.417Z,18.70
2019-05-14T08:56:19.043Z,18.10
2019-05-14T09:03:03.446Z,17.70
2019-05-14T09:09:48.811Z,19.10
2019-05-14T09:16:46.001Z,18.60
2019-05-14T09:23:21.667Z,18.60
2019-05-14T09:30:09.690Z,18.50
2019-05-14T09:36:54.024Z,20.30
2019-05-14T09:43:39.393Z,20.80
2019-05-14T09:50:24.827Z,18.70
2019-05-14T09:57:09.833Z,15.90
2019-05-14T10:03:54.766Z,16.50
2019-05-14T10:10:40.094Z,16.40
2019-05-14T10:17:25.131Z,17.50
2019-05-14T10:24:10.005Z,17.70
2019-05-14T10:30:55.748Z,19.30
2019-05-14T10:37:41.340Z,18.30
2019-05-14T10:44:29.298Z,19.50
2019-05-14T10:51:18.036Z,19.50
2019-05-14T10:58:19.198Z,19.50
2019-05-14T11:05:05.396Z,20.00
2019-05-14T11:11:51.004Z,20.30
2019-05-14T11:18:36.191Z,20.10
2019-05-14T11:25:21.326Z,21.60
2019-05-14T11:32:09.365Z,21.00
2019-05-14T11:38:52.818Z,20.20
2019-05-14T11:45:39.248Z,21.70
2019-05-14T11:52:24.972Z,21.60
2019-05-14T11:59:09.828Z,21.80
2019-05-14T12:05:55.181Z,22.20
2019-05-14T12:12:40.047Z,19.90
2019-05-14T12:19:25.522Z,20.60
2019-05-14T12:26:10.483Z,20.90
2019-05-14T12:32:58.844Z,20.10
2019-05-14T12:39:42.527Z,21.50
2019-05-14T12:46:29.422Z,21.60
2019-05-14T12:53:19.722Z,20.20
2019-05-14T13:00:04.859Z,20.40
2019-05-14T13:06:50.213Z,21.90
2019-05-14T13:13:35.240Z,21.50
2019-05-14T13:20:20.279Z,21.40
2019-05-14T13:27:05.445Z,21.10
2019-05-14T13:33:50.379Z,20.20
2019-05-14T13:40:35.299Z,19.40
2019-05-14T13:47:20.260Z,21.00
2019-05-14T13:54:05.187Z,20.10
2019-05-14T14:00:52.104Z,21.20
2019-05-14T14:07:39.365Z,21.10
2019-05-14T14:14:24.455Z,21.10
2019-05-14T14:21:09.730Z,21.70
2019-05-14T14:27:54.663Z,21.50
2019-05-14T14:34:41.246Z,20.80
2019-05-14T14:41:28.416Z,22.30
2019-05-14T14:48:13.059Z,21.60
2019-05-14T14:54:58.944Z,22.70
2019-05-14T15:01:44.111Z,21.80
2019-05-14T15:08:29.756Z,22.20
2019-05-14T15:15:14.848Z,21.90
2019-05-14T15:22:00.290Z,19.70
2019-05-14T15:28:45.237Z,21.30
2019-05-14T15:35:30.738Z,22.30
2019-05-14T15:42:15.741Z,21.40
2019-05-14T15:49:00.756Z,22.30
2019-05-14T15:55:45.692Z,22.20
2019-05-14T16:02:30.896Z,22.60
2019-05-14T16:09:19.545Z,23.60
2019-05-14T16:16:03.464Z,22.30
2019-05-14T16:22:48.424Z,21.30
2019-05-14T16:29:44.095Z,21.10
2019-05-14T16:36:19.948Z,21.40
2019-05-14T16:43:04.904Z,22.90
2019-05-14T16:49:49.900Z,23.80
2019-05-14T16:56:35.100Z,23.70
2019-05-14T17:03:20.043Z,23.60
2019-05-14T17:10:08.397Z,23.40
2019-05-14T17:16:53.477Z,23.10
2019-05-14T17:23:39.265Z,23.60
2019-05-14T17:30:24.548Z,24.40
2019-05-14T17:37:10.109Z,24.90
2019-05-14T17:43:55.212Z,24.20
2019-05-14T17:50:44.787Z,23.70
2019-05-14T17:57:34.690Z,23.70
2019-05-14T18:04:18.380Z,23.60
2019-05-14T18:11:04.100Z,24.40
2019-05-14T18:17:49.636Z,24.90
2019-05-14T18:24:34.682Z,25.20
2019-05-14T18:31:20.762Z,25.50
2019-05-14T18:38:08.258Z,26.00
2019-05-14T18:44:53.423Z,26.50
2019-05-14T18:51:38.727Z,27.00
2019-05-14T18:58:25.980Z,27.20
2019-05-14T19:05:10.656Z,27.90
2019-05-14T19:11:55.589Z,28.50
2019-05-14T19:18:40.521Z,29.00
2019-05-14T19:25:25.479Z,29.20
2019-05-14T19:32:10.407Z,29.40
2019-05-14T19:38:55.335Z,30.20
2019-05-14T19:45:40.388Z,31.90
2019-05-14T19:52:25.466Z,31.40
2019-05-14T19:59:10.471Z,32.60
2019-05-14T20:05:55.638Z,32.20
2019-05-14T20:12:40.499Z,32.60
2019-05-14T20:19:25.463Z,34.90
2019-05-14T20:26:10.511Z,36.10
2019-05-14T20:32:55.574Z,36.60
2019-05-14T20:39:40.597Z,37.20
2019-05-14T20:46:25.674Z,38.10
2019-05-14T20:53:10.552Z,39.00
2019-05-14T20:59:55.443Z,39.80
2019-05-14T21:06:40.301Z,40.90
2019-05-14T21:13:25.308Z,41.00
2019-05-14T21:20:11.457Z,41.10
2019-05-14T21:26:58.276Z,41.60
2019-05-14T21:33:42.863Z,41.70
2019-05-14T21:40:29.185Z,42.20
2019-05-14T21:47:14.266Z,43.40
2019-05-14T21:53:59.123Z,43.60
2019-05-14T22:00:48.729Z,44.40
2019-05-14T22:07:33.899Z,46.00
2019-05-14T22:14:18.843Z,45.80
2019-05-14T22:21:04.114Z,46.40
2019-05-14T22:27:49.119Z,47.00
2019-05-14T22:34:34.065Z,47.40
2019-05-14T22:41:18.976Z,51.00
2019-05-14T22:48:04.163Z,52.70
2019-05-14T22:54:49.188Z,56.70
2019-05-14T23:01:35.121Z,58.10
2019-05-14T23:08:19.969Z,59.40
2019-05-14T23:15:06.347Z,60.40
2019-05-14T23:21:51.262Z,62.40
2019-05-14T23:28:42.561Z,61.00
2019-05-14T23:35:23.927Z,60.40
2019-05-14T23:42:09.953Z,60.50
2019-05-14T23:48:54.858Z,62.60
2019-05-14T23:55:40.038Z,63.30
